Time;durP1;ratioP1;P1;durP2;ratioP2;P2;SDS_P1;SDS_P2;PMS_P1;PMS_P2;Temp;Humidity;BMP_temperature;BMP_pressure;BME280_temperature;BME280_humidity;BME280_pressure;Samples;Min_cycle;Max_cycle;Signal;HPM_P1;HPM_P2
2024/02/13 00:00:46;;;;;;;16.37;10.93;;;9.10;99.90;;;;;;5013573;28;20036;-68
2024/02/13 00:03:12;;;;;;;19.37;11.77;;;9.10;99.90;;;;;;5014308;28;20056;-70
2024/02/13 00:05:39;;;;;;;15.43;10.10;;;9.10;99.90;;;;;;5014544;28;20029;-68
2024/02/13 00:08:05;;;;;;;15.97;9.33;;;9.10;99.90;;;;;;5015083;28;20442;-68
2024/02/13 00:10:31;;;;;;;16.00;10.50;;;9.10;99.90;;;;;;5014753;28;20064;-68
2024/02/13 00:13:00;;;;;;;16.50;10.07;;;9.10;99.90;;;;;;5014511;28;20072;-68
2024/02/13 00:15:25;;;;;;;12.67;9.43;;;9.10;99.90;;;;;;5014672;28;20091;-69
2024/02/13 00:17:51;;;;;;;12.70;9.77;;;9.00;99.90;;;;;;5014636;28;20021;-69
2024/02/13 00:20:18;;;;;;;13.80;9.70;;;9.00;99.90;;;;;;5014602;28;20104;-68
2024/02/13 00:22:47;;;;;;;14.83;9.73;;;9.00;99.90;;;;;;5014840;28;20022;-68
2024/02/13 00:25:13;;;;;;;15.73;11.03;;;9.00;99.90;;;;;;5014836;28;20444;-68
2024/02/13 00:27:39;;;;;;;17.10;11.63;;;9.00;99.90;;;;;;5014791;28;20137;-69
2024/02/13 00:30:05;;;;;;;14.67;11.13;;;9.00;99.90;;;;;;5014786;28;20022;-68
2024/02/13 00:32:37;;;;;;;15.30;10.13;;;9.00;99.90;;;;;;5014511;28;20406;-69
2024/02/13 00:35:05;;;;;;;13.80;9.47;;;8.90;99.90;;;;;;5014454;28;20029;-67
2024/02/13 00:37:31;;;;;;;13.93;10.50;;;8.90;99.90;;;;;;5014684;28;20026;-69
2024/02/13 00:39:57;;;;;;;12.93;8.70;;;8.90;99.90;;;;;;5014576;28;20018;-69
2024/02/13 00:42:23;;;;;;;13.57;9.87;;;8.90;99.90;;;;;;5014575;28;20032;-68
2024/02/13 00:44:49;;;;;;;17.93;10.10;;;8.80;99.90;;;;;;5014488;28;20026;-68
2024/02/13 00:47:15;;;;;;;14.93;9.77;;;8.80;99.90;;;;;;5012972;28;20061;-68
2024/02/13 00:49:40;;;;;;;16.17;10.47;;;8.80;99.90;;;;;;5027232;28;20045;-69
2024/02/13 00:52:07;;;;;;;16.43;11.60;;;8.70;99.90;;;;;;5021312;28;20046;-68
2024/02/13 00:54:32;;;;;;;16.87;11.57;;;8.70;99.90;;;;;;5014458;28;20513;-69
2024/02/13 00:56:58;;;;;;;16.20;11.03;;;8.70;99.90;;;;;;5014283;28;20061;-68
2024/02/13 00:59:25;;;;;;;20.17;10.87;;;8.70;99.90;;;;;;5013914;28;20524;-69
2024/02/13 01:01:50;;;;;;;20.13;10.73;;;8.70;99.90;;;;;;5013637;28;20596;-70
2024/02/13 01:04:16;;;;;;;14.30;9.90;;;8.70;99.90;;;;;;5014062;28;20053;-68
2024/02/13 01:06:42;;;;;;;15.17;9.67;;;8.70;99.90;;;;;;5013938;28;20099;-68
2024/02/13 01:09:08;;;;;;;13.70;8.87;;;8.70;99.90;;;;;;5013937;28;20462;-68
2024/02/13 01:11:35;;;;;;;13.33;9.37;;;8.70;99.90;;;;;;5013672;28;20034;-68
2024/02/13 01:14:02;;;;;;;15.57;9.30;;;8.70;99.90;;;;;;5013998;28;20025;-68
2024/02/13 01:16:28;;;;;;;16.60;10.00;;;8.70;99.90;;;;;;5013089;28;20132;-68
2024/02/13 01:18:55;;;;;;;14.40;9.17;;;8.70;99.90;;;;;;5013878;28;20057;-68
2024/02/13 01:21:22;;;;;;;15.30;9.27;;;8.70;99.90;;;;;;5013830;28;20536;-69
2024/02/13 01:23:49;;;;;;;13.97;9.57;;;8.70;99.90;;;;;;5013829;28;20109;-68
2024/02/13 01:26:18;;;;;;;14.57;9.53;;;8.70;99.90;;;;;;5013699;28;20037;-69
2024/02/13 01:28:47;;;;;;;12.07;8.87;;;8.70;99.90;;;;;;5013608;28;20018;-69
2024/02/13 01:31:14;;;;;;;14.53;9.40;;;8.70;99.90;;;;;;5013220;28;20474;-68
2024/02/13 01:33:41;;;;;;;14.13;8.93;;;8.60;99.90;;;;;;5012982;28;20024;-69
2024/02/13 01:36:07;;;;;;;16.37;9.97;;;8.70;99.90;;;;;;5013578;28;20150;-70
2024/02/13 01:38:33;;;;;;;12.43;8.97;;;8.60;99.90;;;;;;5013578;28;20452;-68
2024/02/13 01:40:59;;;;;;;13.73;7.67;;;8.60;99.90;;;;;;5013558;28;20045;-68
2024/02/13 01:43:25;;;;;;;14.00;8.47;;;8.60;99.90;;;;;;5013512;28;20030;-68
2024/02/13 01:45:55;;;;;;;11.50;6.97;;;8.60;99.90;;;;;;5013287;28;20470;-69
2024/02/13 01:48:22;;;;;;;9.87;6.90;;;8.60;99.90;;;;;;5013360;28;20033;-68
2024/02/13 01:50:49;;;;;;;9.53;7.03;;;8.60;99.90;;;;;;5011839;28;20041;-68
2024/02/13 01:53:18;;;;;;;7.30;5.27;;;8.60;99.90;;;;;;5013254;28;20053;-68
2024/02/13 01:55:45;;;;;;;7.57;4.97;;;8.50;99.90;;;;;;5013179;28;20017;-68
2024/02/13 01:58:12;;;;;;;8.30;5.80;;;8.50;99.90;;;;;;5011371;28;20042;-68
2024/02/13 02:00:38;;;;;;;12.27;5.73;;;8.50;99.90;;;;;;5010741;28;20033;-68
2024/02/13 02:03:04;;;;;;;12.43;5.47;;;8.50;99.90;;;;;;5009973;28;20026;-68
2024/02/13 02:05:31;;;;;;;9.57;5.77;;;8.50;99.90;;;;;;5010565;28;20030;-68
2024/02/13 02:07:58;;;;;;;7.97;5.17;;;8.50;99.90;;;;;;5013004;28;20025;-68
2024/02/13 02:10:24;;;;;;;10.33;6.63;;;8.50;99.90;;;;;;5012885;28;20034;-68
2024/02/13 02:12:50;;;;;;;11.13;7.37;;;8.40;99.90;;;;;;5012651;28;20026;-68
2024/02/13 02:15:16;;;;;;;9.93;6.60;;;8.40;99.90;;;;;;5012711;28;20037;-68
2024/02/13 02:17:52;;;;;;;10.37;6.97;;;8.40;99.90;;;;;;5012820;28;20069;-68
2024/02/13 02:20:27;;;;;;;10.27;6.97;;;8.40;99.90;;;;;;4995092;28;20504;-68
2024/02/13 02:22:53;;;;;;;8.63;6.13;;;8.40;99.90;;;;;;5012454;28;20033;-69
2024/02/13 02:25:21;;;;;;;8.90;5.90;;;8.40;99.90;;;;;;5012481;28;20363;-68
2024/02/13 02:27:47;;;;;;;10.60;5.80;;;8.40;99.90;;;;;;5015250;28;20049;-71
2024/02/13 02:30:13;;;;;;;9.40;5.73;;;8.30;99.90;;;;;;5017101;28;20379;-68
2024/02/13 02:32:40;;;;;;;8.00;5.60;;;8.30;99.90;;;;;;5016704;28;20048;-68
2024/02/13 02:35:07;;;;;;;10.60;5.23;;;8.30;99.90;;;;;;5016540;28;20038;-68
2024/02/13 02:37:34;;;;;;;8.57;5.73;;;8.30;99.90;;;;;;5016918;28;20034;-69
2024/02/13 02:40:01;;;;;;;9.37;6.17;;;8.30;99.90;;;;;;5016703;28;20022;-69
2024/02/13 02:42:27;;;;;;;9.97;6.43;;;8.20;99.90;;;;;;5016654;28;20079;-69
2024/02/13 02:44:53;;;;;;;10.83;6.30;;;8.20;99.90;;;;;;5016886;28;20022;-68
2024/02/13 02:47:19;;;;;;;12.60;6.27;;;8.20;99.90;;;;;;5016352;28;20482;-68
2024/02/13 02:49:45;;;;;;;8.50;5.33;;;8.20;99.90;;;;;;5016275;28;20506;-68
2024/02/13 02:52:11;;;;;;;9.50;6.20;;;8.20;99.90;;;;;;4998755;28;20036;-69
2024/02/13 02:54:40;;;;;;;9.97;5.80;;;8.20;99.90;;;;;;5016503;28;20025;-68
2024/02/13 02:57:10;;;;;;;9.20;6.13;;;8.10;99.90;;;;;;5016472;28;20025;-68
2024/02/13 02:59:36;;;;;;;9.80;6.00;;;8.10;99.90;;;;;;5016254;28;20109;-69
2024/02/13 03:02:01;;;;;;;11.93;7.23;;;8.10;99.90;;;;;;5016447;28;20117;-68
2024/02/13 03:04:28;;;;;;;16.93;7.80;;;8.10;99.90;;;;;;5016173;28;20506;-68
2024/02/13 03:06:53;;;;;;;13.67;7.67;;;8.10;99.90;;;;;;5016299;28;20470;-69
2024/02/13 03:09:19;;;;;;;11.53;7.67;;;8.10;99.90;;;;;;5016436;28;20029;-69
2024/02/13 03:11:45;;;;;;;11.37;7.73;;;8.00;99.90;;;;;;5016150;28;20080;-68
2024/02/13 03:14:11;;;;;;;11.93;7.60;;;8.00;99.90;;;;;;5015623;28;20026;-68
2024/02/13 03:16:37;;;;;;;9.83;7.50;;;8.00;99.90;;;;;;5015500;28;20037;-73
2024/02/13 03:19:05;;;;;;;12.83;7.40;;;8.00;99.90;;;;;;5015803;28;20383;-67
2024/02/13 03:21:35;;;;;;;11.77;7.30;;;8.00;99.90;;;;;;5015959;28;20030;-70
2024/02/13 03:24:01;;;;;;;10.47;7.73;;;7.90;99.90;;;;;;5015975;28;20022;-68
2024/02/13 03:26:27;;;;;;;11.70;8.13;;;7.90;99.90;;;;;;5015282;28;20109;-69
2024/02/13 03:28:52;;;;;;;9.83;7.53;;;7.90;99.90;;;;;;5015746;28;20022;-68
2024/02/13 03:31:18;;;;;;;14.33;7.97;;;7.90;99.90;;;;;;5015758;28;20481;-68
2024/02/13 03:33:44;;;;;;;15.50;8.57;;;7.90;99.90;;;;;;5015817;28;20393;-69
2024/02/13 03:36:16;;;;;;;17.47;8.40;;;7.80;99.90;;;;;;5015606;28;20101;-68
2024/02/13 03:38:47;;;;;;;15.93;8.93;;;7.80;99.90;;;;;;5014951;28;20026;-69
2024/02/13 03:41:13;;;;;;;14.93;9.20;;;7.80;99.90;;;;;;5015883;28;20034;-68
2024/02/13 03:43:41;;;;;;;16.83;9.90;;;7.80;99.90;;;;;;5015625;28;20351;-68
2024/02/13 03:46:07;;;;;;;14.57;9.93;;;7.80;99.90;;;;;;5015427;28;20026;-68
2024/02/13 03:48:32;;;;;;;13.60;9.07;;;7.80;99.90;;;;;;5015202;28;20078;-68
2024/02/13 03:50:58;;;;;;;13.70;8.37;;;7.80;99.90;;;;;;5015284;28;20076;-68
2024/02/13 03:53:24;;;;;;;10.90;7.20;;;7.70;99.90;;;;;;5015552;28;20022;-68
2024/02/13 03:55:49;;;;;;;7.50;5.07;;;7.80;99.90;;;;;;5015625;28;20104;-69
2024/02/13 03:58:15;;;;;;;6.90;4.43;;;7.70;99.90;;;;;;5015111;28;20378;-69
2024/02/13 04:00:41;;;;;;;4.90;3.37;;;7.70;99.90;;;;;;5014959;28;20058;-67
2024/02/13 04:03:07;;;;;;;5.90;2.87;;;7.80;99.90;;;;;;5014917;28;20022;-69
2024/02/13 04:05:37;;;;;;;3.40;2.40;;;7.80;99.90;;;;;;5015123;28;20517;-68
2024/02/13 04:08:06;;;;;;;4.07;1.87;;;7.80;99.90;;;;;;5030002;28;20374;-68
2024/02/13 04:10:32;;;;;;;2.60;1.80;;;7.80;99.90;;;;;;5034663;28;20031;-69
2024/02/13 04:12:58;;;;;;;4.10;2.07;;;7.90;99.90;;;;;;5035349;28;20083;-68
2024/02/13 04:15:23;;;;;;;4.43;2.80;;;7.80;99.90;;;;;;5034614;28;20033;-69
2024/02/13 04:17:50;;;;;;;6.53;3.00;;;7.90;99.90;;;;;;5034571;28;20044;-68
2024/02/13 04:20:17;;;;;;;5.37;3.27;;;7.90;99.90;;;;;;5034187;28;20025;-68
2024/02/13 04:22:43;;;;;;;6.03;3.63;;;7.90;99.90;;;;;;5034628;28;20036;-68
2024/02/13 04:25:09;;;;;;;7.03;4.00;;;7.90;99.90;;;;;;5034865;28;20029;-68
2024/02/13 04:27:38;;;;;;;6.60;4.80;;;7.90;99.90;;;;;;5034508;28;20433;-69
2024/02/13 04:30:08;;;;;;;7.93;5.17;;;7.90;99.90;;;;;;5034159;28;20029;-68
2024/02/13 04:32:37;;;;;;;10.80;4.90;;;7.90;99.90;;;;;;5034593;28;20017;-70
2024/02/13 04:35:04;;;;;;;9.83;5.40;;;7.90;99.90;;;;;;5034595;28;20026;-68
2024/02/13 04:37:30;;;;;;;11.27;6.33;;;7.90;99.90;;;;;;5033218;28;20029;-68
2024/02/13 04:39:55;;;;;;;7.97;5.70;;;7.80;99.90;;;;;;5034183;28;20032;-69
2024/02/13 04:42:32;;;;;;;9.20;5.80;;;7.80;99.90;;;;;;5034561;28;20600;-68
2024/02/13 04:44:59;;;;;;;10.40;5.97;;;7.80;99.90;;;;;;5033927;28;20037;-69
2024/02/13 04:47:27;;;;;;;8.30;5.37;;;7.80;99.90;;;;;;5026158;28;20021;-68
2024/02/13 04:49:58;;;;;;;9.37;5.97;;;7.70;99.90;;;;;;4993462;28;20050;-69
2024/02/13 04:52:24;;;;;;;10.33;6.53;;;7.70;99.90;;;;;;4994390;28;20074;-68
2024/02/13 04:54:50;;;;;;;12.77;6.20;;;7.60;99.90;;;;;;4994805;28;20060;-67
2024/02/13 04:57:17;;;;;;;15.10;7.03;;;7.60;99.90;;;;;;4994634;28;20114;-69
2024/02/13 04:59:49;;;;;;;12.00;6.60;;;7.60;99.90;;;;;;4993304;28;20459;-68
2024/02/13 05:02:21;;;;;;;14.10;7.40;;;7.60;99.90;;;;;;4994726;28;20034;-68
2024/02/13 05:07:32;;;;;;;9.87;6.80;;;7.50;99.90;;;;;;4994620;28;20038;-69
2024/02/13 05:09:58;;;;;;;14.87;7.13;;;7.50;99.90;;;;;;4994372;28;20030;-68
2024/02/13 05:12:25;;;;;;;13.60;7.60;;;7.50;99.90;;;;;;4994368;28;20100;-68
2024/02/13 05:14:52;;;;;;;15.57;8.23;;;7.50;99.90;;;;;;4994378;28;20061;-68
2024/02/13 05:17:20;;;;;;;16.60;9.03;;;7.50;99.90;;;;;;4994371;28;20106;-68
2024/02/13 05:19:48;;;;;;;16.87;9.67;;;7.50;99.90;;;;;;4993941;28;20035;-69
2024/02/13 05:22:15;;;;;;;33.73;11.30;;;7.50;99.90;;;;;;4994094;28;20038;-68
2024/02/13 05:24:41;;;;;;;14.77;9.23;;;7.50;99.90;;;;;;4994160;28;20352;-68
2024/02/13 05:27:10;;;;;;;12.90;6.87;;;7.50;99.90;;;;;;4994081;28;20031;-68
2024/02/13 05:29:38;;;;;;;9.40;5.87;;;7.50;99.90;;;;;;4994053;28;20022;-69
2024/02/13 05:32:07;;;;;;;10.93;5.80;;;7.50;99.90;;;;;;4993849;28;20073;-68
2024/02/13 05:34:34;;;;;;;8.33;5.07;;;7.50;99.90;;;;;;4994055;28;20018;-67
2024/02/13 05:37:02;;;;;;;8.23;6.10;;;7.40;99.90;;;;;;4993547;28;20109;-68
2024/02/13 05:39:29;;;;;;;8.93;5.07;;;7.50;99.90;;;;;;4994021;28;20022;-68
2024/02/13 05:41:56;;;;;;;8.33;5.20;;;7.40;99.90;;;;;;4993814;28;20081;-69
2024/02/13 05:44:22;;;;;;;12.10;4.97;;;7.50;99.90;;;;;;4993841;28;20367;-68
2024/02/13 05:46:48;;;;;;;6.33;4.90;;;7.40;99.90;;;;;;4993738;28;20022;-68
2024/02/13 05:49:14;;;;;;;11.00;5.60;;;7.40;99.90;;;;;;4993498;28;20077;-68
2024/02/13 05:51:40;;;;;;;9.33;5.80;;;7.40;99.90;;;;;;4993710;28;20042;-68
2024/02/13 05:54:06;;;;;;;17.23;5.10;;;7.40;99.90;;;;;;4993663;28;20030;-68
2024/02/13 05:56:32;;;;;;;12.03;5.13;;;7.40;99.90;;;;;;4993910;28;20034;-68
2024/02/13 05:59:00;;;;;;;9.23;4.80;;;7.40;99.90;;;;;;4993109;28;20034;-69
2024/02/13 06:01:27;;;;;;;8.80;4.50;;;7.30;99.90;;;;;;4993376;28;20478;-68
2024/02/13 06:03:58;;;;;;;7.97;4.47;;;7.40;99.90;;;;;;4993116;28;20059;-68
2024/02/13 06:06:25;;;;;;;6.60;4.43;;;7.30;99.90;;;;;;4993520;28;20065;-68
2024/02/13 06:08:56;;;;;;;5.67;3.67;;;7.30;99.90;;;;;;4993464;28;20065;-68
2024/02/13 06:11:23;;;;;;;9.33;4.37;;;7.30;99.90;;;;;;4993446;28;20506;-68
2024/02/13 06:13:50;;;;;;;4.67;3.60;;;7.30;99.90;;;;;;4992344;28;20042;-69
2024/02/13 06:16:17;;;;;;;6.63;3.50;;;7.30;99.90;;;;;;4993292;28;20045;-69
2024/02/13 06:18:46;;;;;;;4.13;2.93;;;7.30;99.90;;;;;;4993438;28;20030;-68
2024/02/13 06:21:13;;;;;;;5.30;3.43;;;7.30;99.90;;;;;;4992287;28;20061;-68
2024/02/13 06:23:40;;;;;;;6.43;3.70;;;7.30;99.90;;;;;;4993439;28;20109;-68
2024/02/13 06:26:06;;;;;;;6.43;3.80;;;7.30;99.90;;;;;;4993581;28;20093;-68
2024/02/13 06:28:32;;;;;;;5.73;3.00;;;7.30;99.90;;;;;;4993216;28;20030;-68
2024/02/13 06:30:59;;;;;;;8.90;4.63;;;7.30;99.90;;;;;;4991653;28;20125;-68
2024/02/13 06:33:24;;;;;;;9.97;4.43;;;7.30;99.90;;;;;;4993193;28;20027;-69
2024/02/13 06:35:50;;;;;;;6.13;4.53;;;7.30;99.90;;;;;;4993099;28;20023;-71
2024/02/13 06:38:16;;;;;;;7.20;4.30;;;7.30;99.90;;;;;;4992941;28;20094;-71
2024/02/13 06:40:43;;;;;;;8.63;4.23;;;7.30;99.90;;;;;;4992895;28;20026;-68
2024/02/13 06:43:08;;;;;;;8.43;4.53;;;7.30;99.90;;;;;;4993129;28;20152;-69
2024/02/13 06:45:34;;;;;;;7.93;4.70;;;7.20;99.90;;;;;;4992787;28;20058;-69
2024/02/13 06:48:01;;;;;;;12.93;5.63;;;7.20;99.90;;;;;;4993027;28;20037;-71
2024/02/13 06:50:27;;;;;;;12.87;5.67;;;7.20;99.90;;;;;;4992689;28;20057;-70
2024/02/13 06:52:54;;;;;;;12.23;5.33;;;7.20;99.90;;;;;;4992922;28;20038;-69
2024/02/13 06:55:20;;;;;;;10.00;6.30;;;7.20;99.90;;;;;;4992951;28;20531;-69
2024/02/13 06:57:46;;;;;;;16.87;6.07;;;7.20;99.90;;;;;;4993146;28;20552;-69
2024/02/13 07:00:13;;;;;;;15.10;5.20;;;7.20;99.90;;;;;;4993049;28;20023;-68
2024/02/13 07:02:43;;;;;;;26.93;6.20;;;7.20;99.90;;;;;;4993218;28;20399;-69
2024/02/13 07:05:10;;;;;;;21.87;5.80;;;7.10;99.90;;;;;;4992524;28;20097;-69
2024/02/13 07:07:37;;;;;;;15.07;5.57;;;7.20;99.90;;;;;;4992887;28;20466;-71
2024/02/13 07:10:04;;;;;;;34.53;7.00;;;7.20;99.90;;;;;;4992822;28;20037;-68
2024/02/13 07:12:29;;;;;;;23.53;7.50;;;7.20;99.90;;;;;;4992850;28;20046;-68
2024/02/13 07:14:55;;;;;;;15.77;6.83;;;7.20;99.90;;;;;;4995693;28;20390;-70
2024/02/13 07:17:22;;;;;;;18.10;7.80;;;7.20;99.90;;;;;;4996651;28;20030;-69
2024/02/13 07:19:48;;;;;;;15.50;8.20;;;7.20;99.90;;;;;;4996502;28;20050;-68
2024/02/13 07:22:14;;;;;;;17.70;8.00;;;7.30;99.90;;;;;;4996708;28;20058;-69
2024/02/13 07:24:40;;;;;;;16.53;8.67;;;7.30;99.90;;;;;;4996183;28;20062;-68
2024/02/13 07:27:07;;;;;;;20.00;9.13;;;7.30;99.90;;;;;;4993452;28;20475;-70
2024/02/13 07:29:33;;;;;;;17.87;8.27;;;7.30;99.90;;;;;;4993405;28;20034;-69
2024/02/13 07:32:03;;;;;;;16.17;8.13;;;7.30;99.90;;;;;;4993704;28;20104;-68
2024/02/13 07:34:28;;;;;;;16.07;7.77;;;7.30;99.90;;;;;;4995747;28;20026;-69
2024/02/13 07:36:54;;;;;;;16.60;8.27;;;7.40;99.90;;;;;;4995938;28;20057;-68
2024/02/13 07:39:20;;;;;;;10.50;6.50;;;7.40;99.90;;;;;;4995874;28;20053;-69
2024/02/13 07:41:46;;;;;;;16.23;6.20;;;7.40;99.90;;;;;;4995631;28;20022;-67
2024/02/13 07:44:11;;;;;;;11.10;6.43;;;7.50;99.90;;;;;;4995792;28;20026;-69
2024/02/13 07:46:38;;;;;;;14.23;6.70;;;7.50;99.90;;;;;;4995733;28;20066;-68
2024/02/13 07:49:04;;;;;;;10.87;7.20;;;7.60;99.90;;;;;;4995355;28;20047;-70
2024/02/13 07:51:30;;;;;;;16.50;7.50;;;7.60;99.90;;;;;;4995479;28;20042;-69
2024/02/13 07:53:57;;;;;;;19.37;8.43;;;7.60;99.90;;;;;;4995259;28;20105;-69
2024/02/13 07:56:28;;;;;;;23.30;9.07;;;7.60;99.90;;;;;;4994587;28;20034;-68
2024/02/13 07:58:58;;;;;;;26.20;9.00;;;7.70;99.90;;;;;;4992725;28;20030;-68
2024/02/13 08:01:25;;;;;;;17.30;8.67;;;7.70;99.90;;;;;;4992683;28;20483;-68
2024/02/13 08:03:52;;;;;;;13.93;7.97;;;7.80;99.90;;;;;;4994235;28;20033;-68
2024/02/13 08:06:17;;;;;;;17.30;8.10;;;7.90;99.90;;;;;;4995659;28;20049;-68
2024/02/13 08:08:45;;;;;;;17.20;6.90;;;7.90;99.90;;;;;;4995435;28;20193;-68
2024/02/13 08:11:13;;;;;;;21.83;10.50;;;8.00;99.90;;;;;;4995210;28;20034;-66
2024/02/13 08:13:39;;;;;;;15.83;8.87;;;8.00;99.90;;;;;;4994899;28;20018;-68
2024/02/13 08:16:06;;;;;;;12.97;7.77;;;8.20;99.90;;;;;;4995406;28;20477;-67
2024/02/13 08:18:34;;;;;;;12.30;6.63;;;8.30;99.90;;;;;;4995435;28;20088;-67
2024/02/13 08:21:01;;;;;;;9.13;5.60;;;8.30;99.90;;;;;;4995311;28;20026;-68
2024/02/13 08:23:27;;;;;;;11.57;5.50;;;8.40;99.90;;;;;;4994969;28;20054;-68
2024/02/13 08:25:52;;;;;;;7.77;5.07;;;8.50;99.90;;;;;;4994792;28;20054;-69
2024/02/13 08:28:19;;;;;;;13.10;4.40;;;8.50;99.90;;;;;;4994983;28;20034;-68
2024/02/13 08:30:48;;;;;;;9.33;4.97;;;8.60;99.90;;;;;;4995107;28;20029;-68
2024/02/13 08:33:14;;;;;;;13.77;5.30;;;8.70;99.90;;;;;;4995146;28;20061;-68
2024/02/13 08:35:42;;;;;;;11.27;4.90;;;8.80;99.90;;;;;;4994793;28;20026;-71
2024/02/13 08:38:09;;;;;;;13.33;5.20;;;8.80;99.90;;;;;;4994683;28;20033;-68
2024/02/13 08:40:35;;;;;;;8.50;4.80;;;8.90;99.90;;;;;;4995064;28;20102;-69
2024/02/13 08:43:01;;;;;;;7.47;3.73;;;9.00;99.90;;;;;;4994959;28;20034;-68
2024/02/13 08:45:27;;;;;;;4.87;3.10;;;9.00;99.90;;;;;;4994437;28;20057;-68
2024/02/13 08:47:54;;;;;;;3.87;1.90;;;9.10;99.90;;;;;;5020147;28;20458;-69
2024/02/13 08:50:20;;;;;;;10.00;2.00;;;9.20;99.90;;;;;;5080294;22;20190;-68
2024/02/13 08:52:46;;;;;;;2.50;1.63;;;9.30;99.90;;;;;;5074144;28;20518;-69
2024/02/13 08:55:13;;;;;;;3.30;1.90;;;9.30;99.90;;;;;;5074009;28;20016;-69
2024/02/13 08:57:39;;;;;;;5.33;1.60;;;9.40;99.90;;;;;;5073961;28;20056;-68
2024/02/13 09:00:10;;;;;;;2.83;1.60;;;9.50;99.90;;;;;;5073642;28;20098;-68
2024/02/13 09:02:36;;;;;;;4.57;1.90;;;9.60;99.90;;;;;;5073318;28;20020;-69
2024/02/13 09:05:04;;;;;;;7.20;2.70;;;9.60;99.90;;;;;;5073602;28;20108;-67
2024/02/13 09:07:30;;;;;;;8.87;2.97;;;9.70;99.90;;;;;;5073502;28;20490;-68
2024/02/13 09:09:55;;;;;;;4.03;2.40;;;9.80;99.90;;;;;;5073281;28;20017;-69
2024/02/13 09:12:22;;;;;;;5.40;2.03;;;9.90;99.90;;;;;;5073284;28;20029;-68
2024/02/13 09:14:48;;;;;;;4.47;2.40;;;9.90;99.90;;;;;;5073371;28;20368;-68
2024/02/13 09:17:14;;;;;;;6.00;2.10;;;10.00;99.90;;;;;;5073429;28;20059;-69
2024/02/13 09:19:42;;;;;;;4.22;1.38;;;10.10;99.90;;;;;;5073377;28;20458;-68
2024/02/13 09:22:09;;;;;;;3.30;1.47;;;10.10;99.90;;;;;;5073367;28;20067;-70
2024/02/13 09:24:36;;;;;;;2.88;1.65;;;10.20;99.90;;;;;;5073167;28;20483;-68
2024/02/13 09:27:03;;;;;;;9.37;3.00;;;10.30;99.90;;;;;;5073196;28;20028;-68
2024/02/13 09:29:29;;;;;;;7.00;3.47;;;10.40;99.90;;;;;;5073194;28;20074;-68
2024/02/13 09:31:54;;;;;;;11.95;3.60;;;10.50;99.90;;;;;;5073019;28;20044;-74
2024/02/13 09:34:20;;;;;;;12.48;3.88;;;10.50;99.90;;;;;;5072384;28;20501;-75
2024/02/13 09:36:46;;;;;;;13.75;3.75;;;10.60;99.90;;;;;;5071687;28;20035;-75
2024/02/13 09:39:12;;;;;;;10.05;3.33;;;10.70;99.90;;;;;;5073546;28;20020;-75
2024/02/13 09:41:40;;;;;;;10.35;3.50;;;10.70;99.90;;;;;;5073446;28;20029;-75
2024/02/13 09:44:07;;;;;;;6.70;3.15;;;10.80;99.90;;;;;;5073218;28;20029;-74
2024/02/13 09:46:36;;;;;;;12.75;3.20;;;10.90;99.90;;;;;;5073148;28;20032;-76
2024/02/13 09:49:04;;;;;;;10.35;2.95;;;11.00;99.90;;;;;;5072766;28;20052;-75
2024/02/13 09:51:33;;;;;;;9.40;3.05;;;11.00;99.90;;;;;;5072724;28;20043;-74
2024/02/13 09:54:06;;;;;;;5.15;2.13;;;11.10;99.90;;;;;;5072932;28;20155;-75
2024/02/13 09:56:33;;;;;;;6.05;2.30;;;11.10;99.90;;;;;;5072993;28;20074;-75
2024/02/13 09:58:59;;;;;;;8.65;2.40;;;11.20;99.90;;;;;;5073202;28;20028;-74
2024/02/13 10:01:25;;;;;;;14.85;2.72;;;11.20;99.90;;;;;;5072836;28;20031;-75
2024/02/13 10:03:52;;;;;;;6.47;2.30;;;11.30;99.90;;;;;;5072999;28;20024;-75
2024/02/13 10:06:18;;;;;;;5.50;2.40;;;11.40;99.90;;;;;;5073426;28;20400;-75
2024/02/13 10:08:49;;;;;;;9.75;3.20;;;11.40;99.90;;;;;;5073049;28;20104;-75
2024/02/13 10:11:16;;;;;;;5.93;3.17;;;11.50;99.90;;;;;;5072710;28;20040;-75
2024/02/13 10:13:42;;;;;;;11.23;3.00;;;11.60;99.90;;;;;;5072737;28;20025;-74
2024/02/13 10:16:24;;;;;;;4.65;2.55;;;11.70;99.90;;;;;;5072965;28;20028;-76
2024/02/13 10:18:57;;;;;;;4.75;2.17;;;11.80;99.90;;;;;;5072950;28;20051;-75
2024/02/13 10:21:27;;;;;;;4.68;2.50;;;11.80;99.90;;;;;;5072516;28;20063;-75
2024/02/13 10:24:06;;;;;;;7.82;1.73;;;11.90;99.90;;;;;;5072749;28;20016;-74
2024/02/13 10:26:34;;;;;;;3.47;1.73;;;12.00;99.90;;;;;;5072504;28;20021;-75
2024/02/13 10:29:00;;;;;;;4.13;1.98;;;12.10;99.90;;;;;;5072827;28;20104;-75
2024/02/13 10:31:31;;;;;;;6.80;1.30;;;12.10;99.90;;;;;;5072455;28;20108;-74
2024/02/13 10:33:57;;;;;;;1.77;1.05;;;12.10;99.90;;;;;;5072725;28;20376;-75
2024/02/13 10:36:23;;;;;;;2.00;1.08;;;12.20;99.90;;;;;;5072627;28;20035;-76
2024/02/13 10:38:51;;;;;;;2.63;1.38;;;12.20;99.90;;;;;;5072628;28;20024;-75
2024/02/13 10:41:23;;;;;;;2.70;1.00;;;12.30;99.90;;;;;;5072805;28;20548;-75
2024/02/13 10:43:52;;;;;;;4.15;1.50;;;12.40;99.90;;;;;;5072817;28;20070;-75
2024/02/13 10:46:25;;;;;;;2.38;0.93;;;12.40;99.90;;;;;;5071608;28;20483;-75
2024/02/13 10:48:56;;;;;;;2.45;0.98;;;12.50;99.40;;;;;;5075267;28;20124;-75
2024/02/13 10:51:22;;;;;;;1.10;1.00;;;12.50;99.10;;;;;;5076345;28;20047;-75
2024/02/13 10:53:48;;;;;;;1.60;1.10;;;12.60;98.50;;;;;;5076787;28;20021;-74
2024/02/13 10:56:15;;;;;;;1.38;0.80;;;12.70;97.90;;;;;;5076690;28;20361;-75
2024/02/13 10:58:43;;;;;;;1.80;1.00;;;12.80;97.10;;;;;;5076175;28;20101;-75
2024/02/13 11:01:11;;;;;;;2.58;0.85;;;12.80;97.30;;;;;;5076163;28;20036;-75
2024/02/13 11:03:38;;;;;;;1.02;0.75;;;13.00;95.50;;;;;;5076283;28;20472;-75
2024/02/13 11:06:05;;;;;;;1.55;0.80;;;13.00;94.60;;;;;;5075994;28;20450;-76
2024/02/13 11:08:31;;;;;;;0.70;0.50;;;13.10;93.40;;;;;;5076230;28;20024;-76
2024/02/13 11:11:03;;;;;;;2.35;0.70;;;13.20;93.30;;;;;;5076173;28;20039;-75
2024/02/13 11:13:31;;;;;;;1.00;0.70;;;13.20;92.20;;;;;;5076227;28;20041;-75
2024/02/13 11:15:58;;;;;;;1.30;0.65;;;13.30;92.70;;;;;;5075729;28;20024;-75
2024/02/13 11:18:24;;;;;;;0.98;0.70;;;13.30;93.80;;;;;;5075605;28;20074;-75
2024/02/13 11:20:53;;;;;;;1.10;0.63;;;13.40;93.50;;;;;;5075740;28;20017;-75
2024/02/13 11:23:22;;;;;;;2.05;0.50;;;13.40;92.50;;;;;;5075824;28;20025;-75
2024/02/13 11:25:58;;;;;;;1.73;0.40;;;13.50;92.00;;;;;;5075896;28;20028;-75
2024/02/13 11:28:32;;;;;;;0.80;0.47;;;13.60;90.80;;;;;;5075475;28;20016;-76
2024/02/13 11:30:57;;;;;;;3.70;0.50;;;13.70;89.90;;;;;;5075637;28;20154;-76
2024/02/13 11:33:23;;;;;;;0.60;0.40;;;13.70;87.90;;;;;;5075873;28;20020;-74
2024/02/13 11:35:56;;;;;;;0.93;0.50;;;13.80;86.30;;;;;;5075765;28;20029;-76
2024/02/13 11:38:26;;;;;;;0.52;0.32;;;13.90;84.30;;;;;;5075703;28;20390;-75
2024/02/13 11:40:54;;;;;;;1.88;0.32;;;13.90;84.80;;;;;;5075606;28;20028;-74
2024/02/13 11:43:28;;;;;;;0.45;0.30;;;14.00;83.90;;;;;;5075513;28;20380;-76
2024/02/13 11:45:56;;;;;;;2.00;0.60;;;14.10;82.60;;;;;;5075752;28;20021;-75
2024/02/13 11:48:28;;;;;;;1.23;0.60;;;14.10;82.70;;;;;;5075433;28;20049;-75
2024/02/13 11:50:55;;;;;;;0.88;0.40;;;14.20;82.70;;;;;;5075112;28;20505;-76
2024/02/13 11:53:25;;;;;;;0.68;0.45;;;14.20;83.10;;;;;;5075490;28;20484;-75
2024/02/13 11:55:54;;;;;;;2.78;0.40;;;14.30;81.20;;;;;;5075328;28;20020;-74
2024/02/13 11:58:21;;;;;;;0.90;0.60;;;14.40;78.60;;;;;;5075403;28;20096;-76
2024/02/13 12:01:04;;;;;;;1.90;0.60;;;14.40;78.00;;;;;;5074720;28;20025;-76
2024/02/13 12:03:34;;;;;;;0.95;0.40;;;14.60;78.50;;;;;;5075359;28;20024;-74
2024/02/13 12:06:05;;;;;;;0.57;0.30;;;14.60;77.90;;;;;;5073920;28;20094;-74
2024/02/13 12:08:32;;;;;;;0.50;0.40;;;14.70;75.30;;;;;;5075201;28;20085;-75
2024/02/13 12:11:00;;;;;;;1.10;0.60;;;14.70;74.70;;;;;;5073933;28;20120;-76
2024/02/13 12:13:26;;;;;;;2.60;0.40;;;14.80;74.50;;;;;;5075057;28;20103;-75
2024/02/13 12:15:54;;;;;;;0.70;0.47;;;14.80;72.70;;;;;;5074618;28;20104;-74
2024/02/13 12:18:19;;;;;;;1.13;0.50;;;14.90;70.80;;;;;;5074839;28;20039;-75
2024/02/13 12:20:52;;;;;;;1.85;0.20;;;14.90;69.30;;;;;;5074968;28;20029;-75
2024/02/13 12:23:18;;;;;;;;;;;15.00;68.60;;;;;;5075324;28;20032;-75
2024/02/13 12:25:49;;;;;;;0.40;0.15;;;15.10;70.60;;;;;;5074764;28;19905;-75
2024/02/13 12:28:17;;;;;;;0.28;0.10;;;15.10;64.90;;;;;;5074603;28;20048;-74
2024/02/13 12:30:47;;;;;;;3.10;0.30;;;15.10;63.10;;;;;;5074564;28;20381;-75
2024/02/13 12:33:20;;;;;;;0.20;0.20;;;15.20;63.90;;;;;;5074710;28;20024;-75
2024/02/13 12:35:50;;;;;;;0.52;0.30;;;15.20;61.30;;;;;;5074697;28;20025;-75
2024/02/13 12:38:19;;;;;;;0.60;0.20;;;15.20;61.80;;;;;;5074704;28;20025;-75
2024/02/13 12:40:45;;;;;;;0.65;0.35;;;15.30;62.20;;;;;;5074648;28;20021;-73
2024/02/13 12:43:15;;;;;;;0.68;0.30;;;15.30;61.00;;;;;;5074681;28;20395;-75
2024/02/13 12:45:41;;;;;;;2.47;0.32;;;15.30;60.30;;;;;;5074495;28;20040;-75
2024/02/13 12:48:10;;;;;;;0.40;0.30;;;15.40;60.70;;;;;;5074177;28;20094;-75
2024/02/13 12:50:37;;;;;;;0.20;0.20;;;15.40;62.60;;;;;;5074387;28;20024;-75